Time;durP1;ratioP1;P1;durP2;ratioP2;P2;SDS_P1;SDS_P2;PMS_P1;PMS_P2;Temp;Humidity;BMP_temperature;BMP_pressure;BME280_temperature;BME280_humidity;BME280_pressure;Samples;Min_cycle;Max_cycle;Signal;HPM_P1;HPM_P2
2024/01/11 00:02:24;;;;;;;10.60;5.83;;;;;;;-5.63;100.00;97711.50;5059000;28;20048;-74
2024/01/11 00:04:50;;;;;;;9.20;5.77;;;;;;;-5.59;100.00;97695.66;5076521;28;20084;-73
2024/01/11 00:07:15;;;;;;;11.00;7.03;;;;;;;-5.55;100.00;97696.28;5109208;27;20131;-74
2024/01/11 00:09:42;;;;;;;10.97;6.10;;;;;;;-5.43;100.00;97669.56;5099904;27;20431;-73
2024/01/11 00:12:08;;;;;;;14.03;7.57;;;;;;;-5.41;100.00;97672.84;5099319;27;20051;-75
2024/01/11 00:14:35;;;;;;;11.90;6.63;;;;;;;-5.35;100.00;97669.84;5117147;27;20047;-74
2024/01/11 00:17:01;;;;;;;15.03;6.90;;;;;;;-5.40;100.00;97648.66;5066661;27;20054;-74
2024/01/11 00:19:27;;;;;;;11.47;6.60;;;;;;;-5.31;100.00;97651.44;5099576;27;20039;-74
2024/01/11 00:21:53;;;;;;;11.40;5.83;;;;;;;-5.26;100.00;97645.91;5116436;27;20043;-74
2024/01/11 00:24:18;;;;;;;11.03;5.83;;;;;;;-5.25;100.00;97622.53;5134398;27;20055;-75
2024/01/11 00:26:44;;;;;;;13.80;6.60;;;;;;;-5.20;100.00;97622.19;5117465;27;20039;-75
2024/01/11 00:29:10;;;;;;;7.97;5.17;;;;;;;-5.17;100.00;97634.91;5097239;28;20166;-75
2024/01/11 00:31:35;;;;;;;10.97;6.47;;;;;;;-5.11;100.00;97624.13;5113838;28;20060;-75
2024/01/11 00:34:01;;;;;;;10.40;5.93;;;;;;;-5.07;100.00;97593.69;5097317;28;20066;-75
2024/01/11 00:36:28;;;;;;;10.93;6.30;;;;;;;-5.06;100.00;97588.41;5096814;28;20391;-76
2024/01/11 00:38:54;;;;;;;11.33;6.33;;;;;;;-5.03;100.00;97575.22;5113529;28;20074;-75
2024/01/11 00:41:20;;;;;;;10.40;5.97;;;;;;;-4.98;100.00;97573.09;5035334;28;20053;-76
2024/01/11 00:43:46;;;;;;;9.10;6.13;;;;;;;-4.91;100.00;97573.50;5035170;28;20491;-75
2024/01/11 00:46:12;;;;;;;9.80;5.00;;;;;;;-4.88;100.00;97576.69;5019105;28;20045;-75
2024/01/11 00:48:38;;;;;;;7.97;5.00;;;;;;;-4.82;100.00;97544.34;5019381;28;20041;-76
2024/01/11 00:51:06;;;;;;;8.40;4.73;;;;;;;-4.70;100.00;97533.88;5035654;28;20183;-75
2024/01/11 00:53:33;;;;;;;7.93;4.60;;;;;;;-4.74;100.00;97524.72;5036008;28;20147;-75
2024/01/11 00:55:59;;;;;;;8.70;4.90;;;;;;;-4.66;100.00;97532.75;5035157;28;20540;-75
2024/01/11 00:58:25;;;;;;;6.60;4.50;;;;;;;-4.64;100.00;97509.31;5019921;28;20144;-75
2024/01/11 01:00:52;;;;;;;6.73;4.20;;;;;;;-4.58;100.00;97494.09;5040556;28;20130;-75
2024/01/11 01:03:19;;;;;;;7.37;3.57;;;;;;;-4.48;100.00;97482.13;5038605;28;20045;-75
2024/01/11 01:05:46;;;;;;;4.87;3.13;;;;;;;-4.44;100.00;97467.97;5036088;28;20076;-76
2024/01/11 01:08:12;;;;;;;3.33;2.63;;;;;;;-4.37;100.00;97476.09;5018928;28;20056;-75
2024/01/11 01:10:37;;;;;;;2.87;2.40;;;;;;;-4.33;100.00;97461.97;5035927;28;20424;-74
2024/01/11 01:13:03;;;;;;;3.90;2.60;;;;;;;-4.26;100.00;97440.63;5034694;28;20354;-75
2024/01/11 01:15:32;;;;;;;4.23;2.57;;;;;;;-4.15;100.00;97450.19;5054465;28;20059;-76
2024/01/11 01:17:58;;;;;;;4.10;2.90;;;;;;;-4.09;100.00;97440.13;5062257;28;20051;-75
2024/01/11 01:20:23;;;;;;;3.40;2.40;;;;;;;-4.03;100.00;97444.81;5112152;28;20415;-71
2024/01/11 01:22:49;;;;;;;3.00;2.43;;;;;;;-3.93;100.00;97432.81;5112834;28;20050;-77
2024/01/11 01:25:15;;;;;;;3.20;2.40;;;;;;;-3.91;100.00;97432.69;5079485;28;20047;-77
2024/01/11 01:27:41;;;;;;;4.00;2.17;;;;;;;-3.91;100.00;97412.78;5096615;28;20062;-77
2024/01/11 01:30:08;;;;;;;3.33;2.10;;;;;;;-3.81;100.00;97386.91;5113891;28;20134;-76
2024/01/11 01:32:34;;;;;;;4.07;2.20;;;;;;;-3.75;100.00;97376.84;5112990;28;20047;-77
2024/01/11 01:35:00;;;;;;;2.77;2.20;;;;;;;-3.70;100.00;97387.69;5079213;28;20039;-76
2024/01/11 01:37:26;;;;;;;1.90;1.60;;;;;;;-3.61;100.00;97379.16;5079367;28;20375;-76
2024/01/11 01:39:53;;;;;;;2.73;1.80;;;;;;;-3.47;100.00;97356.47;5079774;28;20146;-76
2024/01/11 01:42:19;;;;;;;2.03;1.70;;;;;;;-3.49;100.00;97351.41;5113240;28;20043;-76
2024/01/11 01:44:45;;;;;;;2.17;1.80;;;;;;;-3.40;100.00;97352.41;5097090;28;20035;-76
2024/01/11 01:47:12;;;;;;;1.70;1.57;;;;;;;-3.33;100.00;97350.91;5096492;28;20482;-77
2024/01/11 01:49:38;;;;;;;2.10;1.73;;;;;;;-3.26;100.00;97326.13;5095860;28;20045;-75
2024/01/11 01:52:06;;;;;;;2.30;1.77;;;;;;;-3.20;100.00;97321.25;5095547;28;20032;-76
2024/01/11 01:54:32;;;;;;;1.63;1.50;;;;;;;-3.13;100.00;97322.34;5095172;28;20474;-76
2024/01/11 01:57:00;;;;;;;3.10;1.63;;;;;;;-3.07;100.00;97310.59;5111968;28;20134;-75
2024/01/11 01:59:26;;;;;;;2.27;1.57;;;;;;;-3.00;100.00;97307.38;5078371;28;20135;-72
2024/01/11 02:01:52;;;;;;;1.90;1.67;;;;;;;-2.93;100.00;97289.47;5073572;28;20040;-76
2024/01/11 02:04:18;;;;;;;2.10;1.50;;;;;;;-2.90;100.00;97281.44;5093749;28;20072;-75
2024/01/11 02:06:47;;;;;;;1.70;1.47;;;;;;;-2.77;100.00;97274.25;5058828;28;20071;-75
2024/01/11 02:09:13;;;;;;;1.93;1.60;;;;;;;-2.77;100.00;97266.44;5074100;28;20449;-75
2024/01/11 02:11:44;;;;;;;1.43;1.33;;;;;;;-2.62;100.00;97270.28;5023930;28;20062;-75
2024/01/11 02:14:10;;;;;;;1.50;1.40;;;;;;;-2.67;100.00;97267.28;5056908;28;20046;-77
2024/01/11 02:16:37;;;;;;;1.27;1.17;;;;;;;-2.59;100.00;97239.69;5073479;28;20078;-77
2024/01/11 02:19:04;;;;;;;1.87;1.30;;;;;;;-2.50;100.00;97251.84;5074748;28;20092;-78
2024/01/11 02:21:31;;;;;;;1.60;1.20;;;;;;;-2.45;100.00;97241.88;5075336;28;20068;-77
2024/01/11 02:24:07;;;;;;;1.33;1.23;;;;;;;-2.29;100.00;97223.16;5075395;28;20051;-71
2024/01/11 02:26:35;;;;;;;1.30;1.20;;;;;;;-2.40;100.00;97213.69;5079922;28;20475;-78
2024/01/11 02:29:02;;;;;;;1.43;1.30;;;;;;;-2.33;100.00;97229.56;5052577;28;20480;-78
2024/01/11 02:31:28;;;;;;;1.30;1.20;;;;;;;-2.28;100.00;97201.38;5017491;28;20060;-75
2024/01/11 02:33:55;;;;;;;1.37;1.27;;;;;;;-2.20;100.00;97197.13;5036290;28;20048;-78
2024/01/11 02:36:21;;;;;;;1.00;1.00;;;;;;;-2.15;100.00;97196.72;5074759;28;20113;-77
2024/01/11 02:38:48;;;;;;;1.33;1.20;;;;;;;-2.10;100.00;97189.31;5025851;28;20167;-78
2024/01/11 02:41:15;;;;;;;1.20;1.10;;;;;;;-2.05;100.00;97176.72;5037411;28;20541;-78
2024/01/11 02:43:41;;;;;;;1.23;1.00;;;;;;;-2.04;100.00;97180.97;5037701;28;20527;-79
2024/01/11 02:46:06;;;;;;;0.97;0.90;;;;;;;-2.00;100.00;97174.53;5053594;28;20164;-79
2024/01/11 02:48:32;;;;;;;0.97;0.97;;;;;;;-1.96;100.00;97165.47;5053321;28;20114;-78
2024/01/11 02:50:58;;;;;;;0.83;0.83;;;;;;;-1.90;100.00;97159.72;5037019;28;20052;-79
2024/01/11 02:53:24;;;;;;;0.80;0.80;;;;;;;-1.87;100.00;97156.84;5037147;28;20152;-80
2024/01/11 02:55:50;;;;;;;1.00;1.00;;;;;;;-1.78;100.00;97143.78;5036025;28;20189;-78
2024/01/11 02:58:16;;;;;;;0.90;0.90;;;;;;;-1.79;100.00;97149.97;5034142;28;20044;-79
2024/01/11 03:00:42;;;;;;;1.20;1.10;;;;;;;-1.76;100.00;97138.44;5055750;28;20059;-74
2024/01/11 03:03:08;;;;;;;1.00;1.00;;;;;;;-1.68;100.00;97137.72;5074040;28;20537;-76
2024/01/11 03:05:35;;;;;;;0.87;0.87;;;;;;;-1.64;100.00;97126.91;5057653;28;20044;-66
2024/01/11 03:08:01;;;;;;;0.90;0.90;;;;;;;-1.60;100.00;97125.66;5040279;28;20040;-72
2024/01/11 03:10:27;;;;;;;1.27;0.90;;;;;;;-1.55;100.00;97118.22;5040979;28;20052;-78
2024/01/11 03:12:53;;;;;;;0.90;0.90;;;;;;;-1.50;100.00;97115.19;5054883;28;20182;-78
2024/01/11 03:15:19;;;;;;;0.90;0.90;;;;;;;-1.46;100.00;97109.53;5005462;28;20052;-76
2024/01/11 03:17:45;;;;;;;0.90;0.90;;;;;;;-1.40;100.00;97109.00;5054447;28;20060;-77
2024/01/11 03:20:12;;;;;;;0.80;0.80;;;;;;;-1.34;100.00;97103.19;5038373;28;20052;-77
2024/01/11 03:22:47;;;;;;;0.80;0.80;;;;;;;-1.19;100.00;97095.69;5074472;28;20056;-76
2024/01/11 03:25:13;;;;;;;0.80;0.80;;;;;;;-1.25;100.00;97097.09;5023304;28;20047;-76
2024/01/11 03:27:39;;;;;;;1.70;0.80;;;;;;;-1.20;100.00;97089.66;5073101;28;20048;-76
2024/01/11 03:30:05;;;;;;;0.70;0.70;;;;;;;-1.11;100.00;97075.78;5056396;28;20193;-76
2024/01/11 03:32:31;;;;;;;0.70;0.70;;;;;;;-1.09;100.00;97089.44;5056910;28;20064;-73
2024/01/11 03:34:58;;;;;;;0.80;0.80;;;;;;;-1.02;100.00;97074.06;5057221;28;20106;-77
2024/01/11 03:37:25;;;;;;;0.70;0.70;;;;;;;-0.88;100.00;97066.53;4988383;28;20044;-77
2024/01/11 03:39:51;;;;;;;0.63;0.63;;;;;;;-0.91;100.00;97073.84;5004185;28;20159;-77
2024/01/11 03:42:17;;;;;;;0.70;0.70;;;;;;;-0.85;100.00;97055.81;5036242;28;20166;-76
2024/01/11 03:44:43;;;;;;;0.60;0.60;;;;;;;-0.78;100.00;97045.59;5036606;28;20055;-75
2024/01/11 03:47:08;;;;;;;0.77;0.77;;;;;;;-0.72;100.00;97051.03;5058634;28;20056;-74
2024/01/11 03:49:34;;;;;;;0.60;0.60;;;;;;;-0.66;100.00;97045.22;5075521;28;20040;-68
2024/01/11 03:52:00;;;;;;;0.63;0.63;;;;;;;-0.60;100.00;97038.59;5042703;28;20870;-75
2024/01/11 03:54:29;;;;;;;0.60;0.60;;;;;;;-0.46;100.00;97038.84;5059171;28;20036;-75
2024/01/11 03:56:54;;;;;;;0.70;0.70;;;;;;;-0.48;100.00;97027.75;5075700;28;20432;-74
2024/01/11 03:59:22;;;;;;;0.67;0.67;;;;;;;-0.42;100.00;97031.53;5042682;28;20142;-75
2024/01/11 04:01:47;;;;;;;0.67;0.67;;;;;;;-0.35;100.00;97035.16;5058989;28;20077;-68
2024/01/11 04:04:13;;;;;;;0.60;0.60;;;;;;;-0.32;100.00;97022.63;5059656;28;20067;-74
2024/01/11 04:06:40;;;;;;;0.60;0.60;;;;;;;-0.14;100.00;97025.97;5059241;28;20048;-68
2024/01/11 04:09:09;;;;;;;0.70;0.70;;;;;;;-0.18;100.00;97011.63;5087232;27;20101;-69
2024/01/11 04:11:38;;;;;;;0.57;0.57;;;;;;;-0.01;100.00;97015.97;5098532;27;20146;-73
2024/01/11 04:14:05;;;;;;;0.50;0.50;;;;;;;-0.01;100.00;97008.13;5099987;27;20296;-72
2024/01/11 04:16:31;;;;;;;0.50;0.50;;;;;;;0.04;100.00;97007.66;5134002;27;20166;-73
2024/01/11 04:18:57;;;;;;;0.50;0.50;;;;;;;0.14;100.00;97004.94;5099970;27;20141;-74
2024/01/11 04:21:57;;;;;;;0.60;0.60;;;;;;;0.37;100.00;97000.75;5103939;27;20019;-71
2024/01/11 04:24:29;;;;;;;0.50;0.50;;;;;;;0.32;100.00;97003.03;5132320;27;20031;-66
2024/01/11 04:26:55;;;;;;;0.60;0.60;;;;;;;0.38;100.00;96994.56;5116672;27;20398;-73
2024/01/11 04:29:21;;;;;;;0.60;0.60;;;;;;;0.47;100.00;96993.59;5096906;28;20108;-71
2024/01/11 04:31:47;;;;;;;0.50;0.50;;;;;;;0.53;100.00;96996.38;5099644;27;20126;-72
2024/01/11 04:34:16;;;;;;;0.50;0.50;;;;;;;0.62;100.00;96990.19;5083404;27;20129;-75
2024/01/11 04:36:44;;;;;;;0.60;0.60;;;;;;;0.70;100.00;96989.41;5100305;27;20043;-75
2024/01/11 04:39:15;;;;;;;0.50;0.50;;;;;;;0.79;100.00;96984.03;5095931;28;20391;-74
2024/01/11 04:41:41;;;;;;;0.60;0.60;;;;;;;0.88;100.00;96974.38;5051207;28;20139;-72
2024/01/11 04:44:07;;;;;;;0.60;0.60;;;;;;;0.95;100.00;96988.44;5001705;28;20135;-74
2024/01/11 04:46:33;;;;;;;0.60;0.60;;;;;;;1.02;100.00;96971.94;5001170;28;20060;-73
2024/01/11 04:49:00;;;;;;;0.50;0.50;;;;;;;1.17;100.00;96956.44;5019963;28;20045;-74
2024/01/11 04:51:26;;;;;;;0.50;0.50;;;;;;;1.19;100.00;96967.53;5002024;28;20095;-74
2024/01/11 04:53:52;;;;;;;0.50;0.50;;;;;;;1.23;100.00;96961.00;5018295;28;20091;-74
2024/01/11 04:56:19;;;;;;;0.43;0.43;;;;;;;1.28;100.00;96956.06;4985999;28;20045;-73
2024/01/11 04:58:50;;;;;;;0.50;0.50;;;;;;;1.40;100.00;96960.78;4963454;28;20068;-74
2024/01/11 05:01:18;;;;;;;0.50;0.50;;;;;;;1.46;100.00;96949.66;4935846;29;20067;-74
2024/01/11 05:03:45;;;;;;;0.60;0.60;;;;;;;1.53;100.00;96962.91;4950744;29;20632;-74
2024/01/11 05:06:18;;;;;;;0.50;0.50;;;;;;;1.67;100.00;96943.91;4920229;29;20497;-74
2024/01/11 05:08:46;;;;;;;0.50;0.50;;;;;;;1.68;100.00;96946.34;4952906;29;20109;-74
2024/01/11 05:11:29;;;;;;;0.50;0.50;;;;;;;1.79;100.00;96942.56;4936866;29;20074;-73
2024/01/11 05:13:57;;;;;;;0.53;0.53;;;;;;;1.68;100.00;96935.06;4975116;28;20150;-73
2024/01/11 05:16:25;;;;;;;0.50;0.50;;;;;;;1.78;100.00;96933.09;4921507;29;20586;-73
2024/01/11 05:18:53;;;;;;;0.50;0.50;;;;;;;1.83;100.00;96922.09;4921247;29;20066;-73
2024/01/11 05:21:19;;;;;;;0.50;0.50;;;;;;;1.82;100.00;96923.06;4921390;29;20183;-73
2024/01/11 05:23:46;;;;;;;0.50;0.50;;;;;;;1.88;100.00;96927.66;4920425;29;20055;-73
2024/01/11 05:26:13;;;;;;;0.47;0.47;;;;;;;1.95;100.00;96915.50;4905991;29;20114;-73
2024/01/11 05:28:39;;;;;;;0.50;0.50;;;;;;;1.90;100.00;96917.81;4956698;28;20106;-73
2024/01/11 05:31:10;;;;;;;0.60;0.60;;;;;;;2.01;100.00;96912.22;4925218;28;20054;-73
2024/01/11 05:33:36;;;;;;;0.50;0.50;;;;;;;1.93;100.00;96910.44;4973406;28;20079;-76
2024/01/11 05:36:02;;;;;;;0.50;0.50;;;;;;;1.98;100.00;96921.22;4949966;28;20050;-73
2024/01/11 05:38:30;;;;;;;0.50;0.50;;;;;;;2.00;100.00;96900.91;5018186;28;20059;-73
2024/01/11 05:40:56;;;;;;;0.50;0.50;;;;;;;2.04;100.00;96912.69;5058348;28;20048;-73
2024/01/11 05:43:23;;;;;;;0.50;0.50;;;;;;;2.07;100.00;96904.50;5024832;28;20050;-74
2024/01/11 05:45:50;;;;;;;0.50;0.50;;;;;;;2.13;100.00;96914.28;5058590;28;20445;-74
2024/01/11 05:48:17;;;;;;;0.50;0.50;;;;;;;2.15;100.00;96909.69;5058652;28;20086;-74
2024/01/11 05:50:46;;;;;;;0.50;0.50;;;;;;;2.24;100.00;96913.88;5058660;28;20103;-74
2024/01/11 05:53:13;;;;;;;0.40;0.40;;;;;;;2.16;100.00;96913.09;5085591;28;20047;-75
2024/01/11 05:55:39;;;;;;;0.50;0.50;;;;;;;2.20;100.00;96893.47;5081797;28;20036;-75
2024/01/11 05:58:05;;;;;;;0.50;0.50;;;;;;;2.23;100.00;96904.38;5115158;28;20069;-75
2024/01/11 06:00:31;;;;;;;0.40;0.40;;;;;;;2.22;100.00;96887.06;5065618;28;20039;-75
2024/01/11 06:02:57;;;;;;;0.50;0.50;;;;;;;2.21;100.00;96880.19;5098191;28;20486;-75
2024/01/11 06:05:22;;;;;;;0.60;0.60;;;;;;;2.25;100.00;96896.34;5065478;28;20059;-75
2024/01/11 06:07:48;;;;;;;0.50;0.50;;;;;;;2.27;100.00;96881.31;5081111;28;20046;-75
2024/01/11 06:10:16;;;;;;;0.50;0.50;;;;;;;2.27;100.00;96882.13;5038973;28;20520;-75
2024/01/11 06:12:43;;;;;;;0.50;0.50;;;;;;;2.29;100.00;96876.72;5024413;28;20044;-75
2024/01/11 06:15:09;;;;;;;0.50;0.50;;;;;;;2.30;100.00;96887.00;5024748;28;20052;-75
2024/01/11 06:17:35;;;;;;;0.50;0.50;;;;;;;2.37;100.00;96890.56;5074205;28;20511;-76
2024/01/11 06:20:01;;;;;;;0.60;0.60;;;;;;;2.37;100.00;96868.81;5055572;28;20043;-76
2024/01/11 06:22:29;;;;;;;0.50;0.50;;;;;;;2.40;100.00;96877.13;5000118;28;20148;-75
2024/01/11 06:24:55;;;;;;;0.60;0.60;;;;;;;2.40;100.00;96876.31;4982869;28;20084;-75
2024/01/11 06:27:20;;;;;;;0.60;0.60;;;;;;;2.41;100.00;96867.47;4998339;28;20065;-76
2024/01/11 06:29:46;;;;;;;0.50;0.50;;;;;;;2.44;100.00;96867.09;5031232;28;20433;-76
2024/01/11 06:32:12;;;;;;;0.60;0.60;;;;;;;2.43;100.00;96863.66;4983706;28;20065;-77
2024/01/11 06:34:37;;;;;;;0.50;0.50;;;;;;;2.44;100.00;96865.31;4965956;28;20444;-76
2024/01/11 06:37:03;;;;;;;0.50;0.50;;;;;;;2.43;100.00;96855.81;5014242;28;20053;-77
2024/01/11 06:39:31;;;;;;;0.50;0.50;;;;;;;2.45;100.00;96864.31;4998397;28;20041;-76
2024/01/11 06:41:57;;;;;;;0.60;0.60;;;;;;;2.47;100.00;96859.72;5014532;28;20063;-76
2024/01/11 06:44:23;;;;;;;0.60;0.60;;;;;;;2.43;100.00;96863.66;4997498;28;20151;-77
2024/01/11 06:46:48;;;;;;;0.70;0.70;;;;;;;2.44;100.00;96851.41;5007703;28;20060;-77
2024/01/11 06:49:14;;;;;;;0.57;0.57;;;;;;;2.43;100.00;96845.34;5041617;28;20052;-76
2024/01/11 06:51:40;;;;;;;0.60;0.60;;;;;;;2.44;100.00;96840.91;5025209;28;20109;-74
2024/01/11 06:54:08;;;;;;;0.60;0.60;;;;;;;2.43;100.00;96855.81;5087040;28;20059;-76
2024/01/11 06:56:34;;;;;;;0.70;0.70;;;;;;;2.43;100.00;96837.47;5077977;28;20463;-76
2024/01/11 06:58:59;;;;;;;0.60;0.60;;;;;;;2.44;100.00;96841.75;5077875;28;20044;-76
2024/01/11 07:01:27;;;;;;;0.80;0.80;;;;;;;2.49;100.00;96833.38;5078218;28;20047;-77
2024/01/11 07:03:54;;;;;;;0.70;0.70;;;;;;;2.41;100.00;96831.63;5095810;28;20050;-76
2024/01/11 07:06:20;;;;;;;0.70;0.70;;;;;;;2.44;100.00;96836.50;5061216;28;20039;-78
2024/01/11 07:08:45;;;;;;;0.80;0.80;;;;;;;2.42;100.00;96838.47;5078386;28;20095;-79
2024/01/11 07:11:11;;;;;;;0.63;0.63;;;;;;;2.41;100.00;96830.81;5097525;28;20051;-76
2024/01/11 07:13:37;;;;;;;0.60;0.60;;;;;;;2.46;100.00;96842.38;5079712;28;20387;-77
2024/01/11 07:16:06;;;;;;;0.80;0.80;;;;;;;2.60;100.00;96846.03;5095015;28;20051;-78
2024/01/11 07:18:35;;;;;;;0.67;0.67;;;;;;;2.48;100.00;96836.94;5062063;28;20044;-75
2024/01/11 07:21:02;;;;;;;0.67;0.67;;;;;;;2.55;100.00;96825.59;5077598;28;20054;-78
2024/01/11 07:23:28;;;;;;;0.70;0.70;;;;;;;2.44;100.00;96815.56;5110970;28;20435;-78
2024/01/11 07:26:02;;;;;;;1.60;0.70;;;;;;;2.51;100.00;96828.75;5078687;28;20126;-77
2024/01/11 07:28:28;;;;;;;0.70;0.70;;;;;;;2.49;100.00;96821.06;5078915;28;20039;-77
2024/01/11 07:30:54;;;;;;;0.73;0.73;;;;;;;2.49;100.00;96821.06;5061824;28;20134;-77
2024/01/11 07:33:20;;;;;;;0.70;0.70;;;;;;;2.54;100.00;96818.72;5078233;28;20035;-76
2024/01/11 07:35:47;;;;;;;0.80;0.80;;;;;;;2.53;100.00;96813.66;5095865;28;20055;-76
2024/01/11 07:38:16;;;;;;;0.80;0.80;;;;;;;2.52;100.00;96818.09;5106937;28;20054;-76
2024/01/11 07:40:42;;;;;;;0.80;0.80;;;;;;;2.54;100.00;96815.28;5057250;28;20052;-79
2024/01/11 07:43:08;;;;;;;0.70;0.70;;;;;;;2.53;100.00;96814.50;5090629;28;20048;-78
2024/01/11 07:45:34;;;;;;;0.77;0.77;;;;;;;2.53;100.00;96806.63;5091850;28;20067;-77
2024/01/11 07:48:03;;;;;;;0.70;0.70;;;;;;;2.54;100.00;96803.03;5095400;28;20087;-76
2024/01/11 07:50:30;;;;;;;0.90;0.90;;;;;;;2.58;100.00;96803.50;5077527;28;20097;-76
2024/01/11 07:52:56;;;;;;;0.70;0.70;;;;;;;2.58;100.00;96806.94;5060895;28;20054;-76
2024/01/11 07:55:23;;;;;;;0.60;0.60;;;;;;;2.61;100.00;96795.28;5060378;28;20126;-76
2024/01/11 07:57:50;;;;;;;0.87;0.83;;;;;;;2.63;100.00;96798.53;5060240;28;20056;-76
2024/01/11 08:00:15;;;;;;;0.90;0.90;;;;;;;2.64;100.00;96808.84;5076574;28;20578;-75
2024/01/11 08:02:41;;;;;;;0.77;0.77;;;;;;;2.65;100.00;96799.16;5044036;28;20112;-75
2024/01/11 08:05:07;;;;;;;0.90;0.80;;;;;;;2.68;100.00;96796.19;5045542;28;20044;-75
2024/01/11 08:07:33;;;;;;;0.73;0.73;;;;;;;2.65;100.00;96784.25;5027177;28;20050;-75
2024/01/11 08:09:59;;;;;;;0.90;0.90;;;;;;;2.67;100.00;96786.69;5076633;28;20055;-75
2024/01/11 08:12:25;;;;;;;0.90;0.90;;;;;;;2.68;100.00;96773.41;5114626;28;20039;-75
2024/01/11 08:14:51;;;;;;;0.80;0.80;;;;;;;2.69;100.00;96767.19;5080719;28;20100;-73
2024/01/11 08:17:19;;;;;;;0.90;0.90;;;;;;;2.74;100.00;96769.25;5080461;28;20395;-74
2024/01/11 08:19:46;;;;;;;1.27;1.03;;;;;;;2.82;100.00;96769.19;5097968;28;20043;-73
2024/01/11 08:22:13;;;;;;;0.90;0.90;;;;;;;2.77;100.00;96767.09;5064662;28;20363;-74
2024/01/11 08:24:40;;;;;;;2.43;1.10;;;;;;;2.72;100.00;96758.16;5099210;28;20495;-73
2024/01/11 08:27:06;;;;;;;0.70;0.70;;;;;;;2.76;100.00;96767.28;5096971;28;20513;-74
2024/01/11 08:29:33;;;;;;;1.03;0.97;;;;;;;2.78;100.00;96766.09;5097273;28;20028;-73
2024/01/11 08:32:01;;;;;;;0.80;0.80;;;;;;;2.76;100.00;96760.25;5080262;28;20063;-74
2024/01/11 08:34:26;;;;;;;1.10;0.93;;;;;;;2.74;100.00;96749.13;5080046;28;20365;-74
2024/01/11 08:36:52;;;;;;;1.23;1.13;;;;;;;2.76;100.00;96744.53;5113807;28;20059;-74
2024/01/11 08:39:18;;;;;;;1.00;1.00;;;;;;;2.78;100.00;96746.97;5063085;28;20039;-73
2024/01/11 08:41:43;;;;;;;1.60;1.20;;;;;;;2.77;100.00;96737.47;5097422;28;20048;-74
2024/01/11 08:44:11;;;;;;;1.17;1.00;;;;;;;2.83;100.00;96734.94;5080651;28;20035;-72
2024/01/11 08:46:37;;;;;;;1.20;1.10;;;;;;;2.77;100.00;96746.16;5080611;28;20099;-72
2024/01/11 08:49:03;;;;;;;1.10;1.10;;;;;;;2.81;100.00;96744.81;5097473;28;20093;-73
2024/01/11 08:51:29;;;;;;;1.03;0.93;;;;;;;2.80;100.00;96732.69;5080161;28;20079;-73
2024/01/11 08:53:55;;;;;;;1.23;1.13;;;;;;;2.78;100.00;96736.50;5096725;28;20043;-72
2024/01/11 08:56:21;;;;;;;1.20;1.10;;;;;;;2.80;100.00;96737.09;5096590;28;20050;-73
2024/01/11 08:58:48;;;;;;;4.20;1.20;;;;;;;2.82;100.00;96729.88;5079596;28;20044;-75
2024/01/11 09:01:14;;;;;;;1.00;1.00;;;;;;;2.78;100.00;96729.41;5113700;28;20215;-75
2024/01/11 09:03:41;;;;;;;1.20;1.10;;;;;;;2.73;100.00;96718.69;5096883;28;20044;-72
2024/01/11 09:06:07;;;;;;;2.20;1.00;;;;;;;2.73;100.00;96712.63;5080142;28;20046;-72
2024/01/11 09:08:33;;;;;;;1.40;1.23;;;;;;;2.74;100.00;96704.59;5079836;28;20039;-72
2024/01/11 09:11:00;;;;;;;1.00;1.00;;;;;;;2.82;100.00;96707.13;5096438;28;20035;-73
2024/01/11 09:13:28;;;;;;;1.23;1.13;;;;;;;2.85;100.00;96705.94;5096761;28;20043;-72
2024/01/11 09:15:55;;;;;;;1.40;1.30;;;;;;;2.73;100.00;96702.16;5096503;28;20063;-72
2024/01/11 09:18:21;;;;;;;1.40;1.10;;;;;;;2.75;100.00;96700.97;5112923;28;20071;-73
2024/01/11 09:20:47;;;;;;;1.57;1.20;;;;;;;2.74;100.00;96698.53;5063076;28;20120;-72
2024/01/11 09:23:13;;;;;;;1.33;1.23;;;;;;;2.74;100.00;96703.75;5096095;28;20059;-72
2024/01/11 09:25:40;;;;;;;1.00;1.00;;;;;;;2.70;100.00;96747.03;5062589;28;20054;-72
2024/01/11 09:28:07;;;;;;;0.90;0.90;;;;;;;2.77;100.00;96816.06;5112777;28;20035;-75
2024/01/11 09:30:33;;;;;;;1.10;0.90;;;;;;;2.64;100.00;96805.41;5114176;28;20077;-73
2024/01/11 09:32:59;;;;;;;0.80;0.80;;;;;;;2.59;100.00;96790.22;5079597;28;20093;-73
2024/01/11 09:35:25;;;;;;;1.67;0.80;;;;;;;2.53;100.00;96785.69;5079187;28;20096;-73
2024/01/11 09:37:51;;;;;;;0.80;0.80;;;;;;;2.50;100.00;96793.91;5079087;28;20035;-73
2024/01/11 09:40:17;;;;;;;0.60;0.60;;;;;;;2.47;100.00;96793.44;5080058;28;20386;-73
2024/01/11 09:42:46;;;;;;;0.77;0.77;;;;;;;2.46;100.00;96787.38;5113280;28;20541;-73
2024/01/11 09:45:16;;;;;;;0.70;0.70;;;;;;;2.56;100.00;96793.19;5095868;28;20043;-73
2024/01/11 09:47:45;;;;;;;0.90;0.90;;;;;;;2.46;100.00;96795.22;5112347;28;20058;-73
2024/01/11 09:50:17;;;;;;;0.60;0.60;;;;;;;2.43;100.00;96803.44;5096052;28;20154;-73
2024/01/11 09:52:48;;;;;;;0.60;0.60;;;;;;;2.46;100.00;96797.84;5080134;28;20134;-73
2024/01/11 09:55:14;;;;;;;1.03;0.90;;;;;;;2.37;100.00;96796.28;5130343;27;20039;-73
2024/01/11 09:57:44;;;;;;;0.80;0.80;;;;;;;2.45;100.00;96809.31;5063081;28;20062;-72
2024/01/11 10:00:14;;;;;;;0.80;0.80;;;;;;;2.48;100.00;96803.72;5079860;28;20134;-75
2024/01/11 10:02:39;;;;;;;0.87;0.87;;;;;;;2.35;100.00;96795.66;5095779;28;20048;-73
2024/01/11 10:05:06;;;;;;;0.80;0.80;;;;;;;2.41;100.00;96800.19;5113329;28;20115;-74
2024/01/11 10:07:33;;;;;;;1.00;1.00;;;;;;;2.43;100.00;96807.88;5078191;28;20043;-74
2024/01/11 10:09:58;;;;;;;1.17;1.00;;;;;;;2.42;100.00;96812.28;5077688;28;20070;-74
2024/01/11 10:12:25;;;;;;;1.10;1.00;;;;;;;2.42;100.00;96819.31;5061593;28;20067;-74
2024/01/11 10:14:54;;;;;;;1.00;1.00;;;;;;;2.44;100.00;96830.44;5095650;28;20467;-74
2024/01/11 10:17:20;;;;;;;2.60;1.13;;;;;;;2.46;100.00;96837.13;5098074;27;20054;-73
2024/01/11 10:19:46;;;;;;;1.40;1.30;;;;;;;2.43;100.00;96839.31;5064856;27;20355;-74
2024/01/11 10:22:16;;;;;;;1.37;1.17;;;;;;;2.33;100.00;96850.00;5064136;27;20055;-74
2024/01/11 10:24:43;;;;;;;1.13;1.10;;;;;;;2.24;100.00;96845.00;5098340;27;20485;-74
2024/01/11 10:27:09;;;;;;;1.13;1.10;;;;;;;2.17;100.00;96865.03;5114150;27;20054;-75
2024/01/11 10:29:37;;;;;;;0.93;0.83;;;;;;;2.17;100.00;96871.03;5097349;27;20445;-74
2024/01/11 10:32:03;;;;;;;0.90;0.90;;;;;;;2.15;100.00;96873.03;5094079;28;20138;-74
2024/01/11 10:34:29;;;;;;;1.00;0.90;;;;;;;2.15;100.00;96872.22;5060342;28;20090;-75
2024/01/11 10:36:56;;;;;;;1.10;1.00;;;;;;;2.19;100.00;96865.63;5061170;28;20078;-75
2024/01/11 10:39:25;;;;;;;0.93;0.90;;;;;;;2.32;100.00;96881.59;5055068;28;20045;-75
2024/01/11 10:41:54;;;;;;;1.00;1.00;;;;;;;2.22;100.00;96892.28;5037893;28;20060;-75
2024/01/11 10:44:22;;;;;;;1.20;1.10;;;;;;;2.15;100.00;96898.41;5054305;28;20053;-75
2024/01/11 10:46:49;;;;;;;1.00;1.00;;;;;;;2.00;100.00;96890.44;5037247;28;20048;-75
2024/01/11 10:49:19;;;;;;;1.07;1.00;;;;;;;2.00;100.00;96889.66;5053845;28;20048;-75
2024/01/11 10:51:56;;;;;;;1.10;1.00;;;;;;;1.92;100.00;96900.16;5036636;28;20102;-75
2024/01/11 10:54:23;;;;;;;0.93;0.90;;;;;;;1.82;100.00;96912.59;5037657;28;20052;-75
2024/01/11 10:56:51;;;;;;;1.10;1.00;;;;;;;1.78;100.00;96912.16;5038010;28;20503;-75
2024/01/11 10:59:18;;;;;;;1.00;1.00;;;;;;;1.73;100.00;96917.06;5038105;28;20052;-75
2024/01/11 11:01:45;;;;;;;0.90;0.90;;;;;;;1.63;100.00;96921.66;5052918;28;20429;-75
2024/01/11 11:04:11;;;;;;;0.90;0.90;;;;;;;1.50;100.00;96935.31;5000513;28;20077;-75
2024/01/11 11:06:40;;;;;;;0.80;0.80;;;;;;;1.53;100.00;96942.81;5033310;28;20106;-75
2024/01/11 11:09:09;;;;;;;1.03;1.03;;;;;;;1.40;100.00;96947.72;5033281;28;20140;-75
2024/01/11 11:11:35;;;;;;;0.90;0.90;;;;;;;1.20;100.00;96959.53;5057769;28;20052;-75
2024/01/11 11:14:03;;;;;;;1.10;1.00;;;;;;;1.26;100.00;96971.13;5054163;28;20461;-75
2024/01/11 11:16:29;;;;;;;1.00;1.00;;;;;;;1.24;100.00;96967.84;5020632;28;20538;-75
2024/01/11 11:18:55;;;;;;;0.93;0.93;;;;;;;1.34;100.00;96973.72;5004970;28;20048;-75
2024/01/11 11:21:21;;;;;;;2.03;1.00;;;;;;;1.39;100.00;96977.47;5022680;28;20049;-75
2024/01/11 11:23:47;;;;;;;1.00;1.00;;;;;;;1.41;100.00;96990.38;5024135;28;20413;-75
2024/01/11 11:26:18;;;;;;;1.00;1.00;;;;;;;1.46;100.00;96998.56;5023891;28;20457;-75
2024/01/11 11:28:48;;;;;;;0.90;0.90;;;;;;;1.40;100.00;97001.81;5024394;28;20372;-75